createdAt,value
2019-04-20T00:00:30.538Z,10.94
2019-04-20T00:01:31.991Z,10.96
2019-04-20T00:02:27.521Z,10.97
2019-04-20T00:03:34.403Z,10.94
2019-04-20T00:04:32.404Z,10.99
2019-04-20T00:05:27.564Z,10.91
2019-04-20T00:06:31.728Z,10.92
2019-04-20T00:07:31.299Z,10.84
2019-04-20T00:08:31.081Z,10.82
2019-04-20T00:09:31.294Z,10.85
2019-04-20T00:10:29.836Z,10.88
2019-04-20T00:11:39.810Z,10.81
2019-04-20T00:12:39.455Z,10.76
2019-04-20T00:13:38.436Z,10.82
2019-04-20T00:14:30.832Z,10.81
2019-04-20T00:15:28.258Z,10.79
2019-04-20T00:16:27.303Z,10.74
2019-04-20T00:17:27.090Z,10.79
2019-04-20T00:18:35.530Z,10.71
2019-04-20T00:19:35.396Z,10.74
2019-04-20T00:20:32.066Z,10.66
2019-04-20T00:21:27.015Z,10.70
2019-04-20T00:22:34.378Z,10.70
2019-04-20T00:23:33.459Z,10.68
2019-04-20T00:24:31.975Z,10.68
2019-04-20T00:25:44.442Z,10.71
2019-04-20T00:26:56.431Z,10.78
2019-04-20T00:27:54.526Z,10.76
2019-04-20T00:28:47.369Z,10.67
2019-04-20T00:29:45.250Z,10.70
2019-04-20T00:30:48.007Z,10.66
2019-04-20T00:31:42.182Z,10.67
2019-04-20T00:32:45.496Z,10.74
2019-04-20T00:33:39.763Z,10.85
2019-04-20T00:34:33.148Z,10.81
2019-04-20T00:35:27.144Z,10.81
2019-04-20T00:36:27.746Z,10.86
2019-04-20T00:37:27.751Z,10.97
2019-04-20T00:38:33.543Z,11.00
2019-04-20T00:39:27.864Z,10.97
2019-04-20T00:40:26.654Z,10.96
2019-04-20T00:41:27.684Z,10.88
2019-04-20T00:42:33.896Z,10.89
2019-04-20T00:43:31.097Z,10.89
2019-04-20T00:44:31.983Z,10.82
2019-04-20T00:45:30.612Z,10.82
2019-04-20T00:46:35.434Z,10.81
2019-04-20T00:47:37.386Z,10.84
2019-04-20T00:48:37.587Z,10.76
2019-04-20T00:49:38.890Z,10.78
2019-04-20T00:50:43.076Z,10.67
2019-04-20T00:51:49.370Z,10.71
2019-04-20T00:52:44.116Z,10.61
2019-04-20T00:53:33.337Z,10.67
2019-04-20T00:54:26.452Z,10.67
2019-04-20T00:55:27.309Z,10.64
2019-04-20T00:56:26.533Z,10.59
2019-04-20T00:57:39.371Z,10.59
2019-04-20T00:58:33.369Z,10.60
2019-04-20T00:59:42.522Z,10.51
2019-04-20T01:00:41.042Z,10.48
2019-04-20T01:01:47.545Z,10.47
2019-04-20T01:02:37.120Z,10.44
2019-04-20T01:03:43.500Z,10.44
2019-04-20T01:04:51.813Z,10.47
2019-04-20T01:05:43.765Z,10.45
2019-04-20T01:06:41.032Z,10.47
2019-04-20T01:07:37.466Z,10.36
2019-04-20T01:08:27.391Z,10.44
2019-04-20T01:09:26.477Z,10.44
2019-04-20T01:10:29.205Z,10.42
2019-04-20T01:11:30.874Z,10.48
2019-04-20T01:12:28.550Z,10.42
2019-04-20T01:13:27.178Z,10.44
2019-04-20T01:14:31.201Z,10.47
2019-04-20T01:15:36.391Z,10.45
2019-04-20T01:16:35.363Z,10.45
2019-04-20T01:17:25.914Z,10.47
2019-04-20T01:18:25.894Z,10.41
2019-04-20T01:19:25.886Z,10.32
2019-04-20T01:20:26.490Z,10.36
2019-04-20T01:21:28.831Z,10.36
2019-04-20T01:22:28.397Z,10.36
2019-04-20T01:23:35.476Z,10.27
2019-04-20T01:24:32.878Z,10.29
2019-04-20T01:25:30.889Z,10.25
2019-04-20T01:26:27.342Z,10.26
2019-04-20T01:27:39.922Z,10.22
2019-04-20T01:28:44.745Z,10.25
2019-04-20T01:29:32.439Z,10.14
2019-04-20T01:30:35.011Z,10.25
2019-04-20T01:31:35.419Z,10.22
2019-04-20T01:32:36.028Z,10.17
2019-04-20T01:33:37.272Z,10.17
2019-04-20T01:34:39.189Z,10.17
2019-04-20T01:35:44.158Z,10.17
2019-04-20T01:36:46.126Z,10.08
2019-04-20T01:37:36.551Z,10.04
2019-04-20T01:38:41.185Z,10.02
2019-04-20T01:39:34.639Z,10.07
2019-04-20T01:40:25.574Z,10.04
2019-04-20T01:41:26.512Z,10.07
2019-04-20T01:42:25.570Z,10.01
2019-04-20T01:43:25.402Z,10.04
2019-04-20T01:44:31.612Z,10.07
2019-04-20T01:45:29.322Z,9.96
2019-04-20T01:46:28.331Z,9.94
2019-04-20T01:47:32.380Z,9.94
2019-04-20T01:48:28.681Z,9.87
2019-04-20T01:49:30.269Z,9.84
2019-04-20T01:50:28.442Z,9.90
2019-04-20T01:51:30.663Z,9.81
2019-04-20T01:52:29.895Z,9.81
2019-04-20T01:53:44.172Z,9.78
2019-04-20T01:54:48.579Z,9.76
2019-04-20T01:55:42.511Z,9.76
2019-04-20T01:56:37.358Z,9.81
2019-04-20T01:57:33.003Z,9.76
2019-04-20T01:58:42.825Z,9.75
2019-04-20T01:59:37.064Z,9.75
2019-04-20T02:00:32.751Z,9.60
2019-04-20T02:01:29.677Z,9.76
2019-04-20T02:02:26.656Z,9.72
2019-04-20T02:03:31.087Z,9.74
2019-04-20T02:04:29.177Z,9.75
2019-04-20T02:05:30.998Z,9.84
2019-04-20T02:06:26.846Z,9.87
2019-04-20T02:07:31.602Z,9.75
2019-04-20T02:08:28.138Z,9.79
2019-04-20T02:09:28.008Z,9.81
2019-04-20T02:10:31.922Z,9.75
2019-04-20T02:11:29.448Z,9.81
2019-04-20T02:12:29.231Z,9.81
2019-04-20T02:13:26.398Z,9.89
2019-04-20T02:14:34.203Z,9.81
2019-04-20T02:15:32.540Z,9.90
2019-04-20T02:16:33.602Z,9.87
2019-04-20T02:17:31.976Z,9.83
2019-04-20T02:18:35.899Z,9.84
2019-04-20T02:19:37.711Z,9.81
2019-04-20T02:20:43.886Z,9.81
2019-04-20T02:21:43.357Z,9.81
2019-04-20T02:22:45.129Z,9.79
2019-04-20T02:23:34.727Z,9.87
2019-04-20T02:24:25.770Z,9.71
2019-04-20T02:25:24.920Z,9.72
2019-04-20T02:26:24.539Z,9.74
2019-04-20T02:27:31.104Z,9.71
2019-04-20T02:28:45.892Z,9.68
2019-04-20T02:29:46.223Z,9.65
2019-04-20T02:31:04.738Z,9.60
2019-04-20T02:32:09.028Z,9.61
2019-04-20T02:32:55.249Z,9.54
2019-04-20T02:33:59.354Z,9.56
2019-04-20T02:34:55.362Z,9.66
2019-04-20T02:36:08.194Z,9.65
2019-04-20T02:38:05.654Z,9.74
2019-04-20T02:41:03.148Z,9.74
2019-04-20T02:43:03.615Z,9.68
2019-04-20T02:44:06.108Z,9.72
2019-04-20T02:45:01.391Z,9.75
2019-04-20T02:45:52.976Z,9.72
2019-04-20T02:46:55.994Z,9.74
2019-04-20T02:48:01.270Z,9.65
2019-04-20T02:49:04.302Z,9.61
2019-04-20T02:51:05.896Z,9.60
2019-04-20T02:51:54.016Z,9.64
2019-04-20T02:53:09.979Z,9.58
2019-04-20T02:54:12.909Z,9.50
2019-04-20T02:55:04.394Z,9.56
2019-04-20T02:56:00.167Z,9.57
2019-04-20T02:59:14.704Z,9.51
2019-04-20T03:00:46.180Z,9.53
2019-04-20T03:01:45.617Z,9.48
2019-04-20T03:02:38.551Z,9.47
2019-04-20T03:03:32.810Z,9.43
2019-04-20T03:04:36.328Z,9.42
2019-04-20T03:05:33.195Z,9.35
2019-04-20T03:06:38.863Z,9.36
2019-04-20T03:07:47.966Z,9.28
2019-04-20T03:08:47.201Z,9.23
2019-04-20T03:09:46.932Z,9.23
2019-04-20T03:10:56.737Z,9.24
2019-04-20T03:11:52.772Z,9.26
2019-04-20T03:12:43.088Z,9.29
2019-04-20T03:13:41.436Z,9.18
2019-04-20T03:14:39.314Z,9.23
2019-04-20T03:15:44.531Z,9.24
2019-04-20T03:16:39.724Z,9.20
2019-04-20T03:17:46.416Z,9.26
2019-04-20T03:18:41.639Z,9.24
2019-04-20T03:19:37.677Z,9.17
2019-04-20T03:20:50.271Z,9.18
2019-04-20T03:21:44.280Z,9.14
2019-04-20T03:23:05.522Z,9.14
2019-04-20T03:23:55.713Z,9.17
2019-04-20T03:25:01.827Z,9.10
2019-04-20T03:25:53.494Z,9.13
2019-04-20T03:26:43.145Z,9.11
2019-04-20T03:27:36.590Z,8.98
2019-04-20T03:28:41.408Z,8.80
2019-04-20T03:32:15.451Z,8.47
2019-04-20T03:33:12.679Z,8.44
2019-04-20T03:34:05.658Z,8.36
2019-04-20T03:35:00.540Z,8.30
2019-04-20T03:35:50.896Z,8.26
2019-04-20T03:36:57.505Z,8.25
2019-04-20T03:37:58.605Z,8.16
2019-04-20T03:38:44.800Z,8.11
2019-04-20T03:39:41.675Z,8.15
2019-04-20T03:40:36.465Z,8.18
2019-04-20T03:41:32.515Z,8.12
2019-04-20T03:42:24.350Z,8.10
2019-04-20T03:43:22.980Z,8.16
2019-04-20T03:44:26.462Z,8.20
2019-04-20T03:45:24.887Z,8.07
2019-04-20T03:46:31.025Z,8.00
2019-04-20T03:47:35.074Z,7.97
2019-04-20T03:48:41.432Z,8.04
2019-04-20T03:49:48.323Z,7.95
2019-04-20T03:50:42.373Z,8.00
2019-04-20T03:51:47.080Z,8.02
2019-04-20T03:52:36.581Z,7.95
2019-04-20T03:53:43.406Z,8.07
2019-04-20T03:54:34.406Z,8.18
2019-04-20T03:55:39.731Z,8.20
2019-04-20T03:56:46.325Z,8.30
2019-04-20T03:57:45.596Z,8.41
2019-04-20T03:58:39.021Z,8.48
2019-04-20T03:59:38.940Z,8.65
2019-04-20T04:00:42.998Z,8.61
2019-04-20T04:02:06.292Z,8.63
2019-04-20T04:02:54.697Z,8.74
2019-04-20T04:03:51.252Z,8.79
2019-04-20T04:04:44.160Z,8.83
2019-04-20T04:05:39.414Z,8.79
2019-04-20T04:06:32.846Z,8.81
2019-04-20T04:07:30.434Z,8.80
2019-04-20T04:08:32.241Z,8.77
2019-04-20T04:09:33.137Z,8.74
2019-04-20T04:10:33.575Z,8.71
2019-04-20T04:11:38.799Z,8.66
2019-04-20T04:12:29.966Z,8.74
2019-04-20T04:13:23.036Z,8.68
2019-04-20T04:14:22.334Z,8.56
2019-04-20T04:15:23.094Z,8.66
2019-04-20T04:16:27.142Z,8.71
2019-04-20T04:17:29.669Z,8.58
2019-04-20T04:18:29.896Z,8.55
2019-04-20T04:19:28.433Z,8.48
2019-04-20T04:20:23.105Z,8.44
2019-04-20T04:21:40.939Z,8.62
2019-04-20T04:22:42.001Z,8.58
2019-04-20T04:23:40.394Z,8.41
2019-04-20T04:24:31.548Z,8.48
2019-04-20T04:25:32.537Z,8.45
2019-04-20T04:26:39.474Z,8.53
2019-04-20T04:27:40.504Z,8.40
2019-04-20T04:28:37.393Z,8.43
2019-04-20T04:29:41.885Z,8.50
2019-04-20T04:30:36.772Z,8.56
2019-04-20T04:31:45.498Z,8.44
2019-04-20T04:33:09.014Z,8.50
2019-04-20T06:54:05.462Z,13.91
2019-04-20T06:55:19.977Z,13.84
2019-04-20T06:56:15.936Z,13.60
2019-04-20T06:57:09.902Z,13.59
2019-04-20T06:58:29.139Z,13.57
2019-04-20T06:59:21.529Z,13.64
2019-04-20T07:00:27.940Z,13.69
2019-04-20T07:01:11.198Z,13.59
2019-04-20T07:02:20.225Z,13.64
2019-04-20T07:03:17.499Z,13.62
2019-04-20T07:04:33.517Z,13.62
2019-04-20T07:05:13.039Z,13.71
2019-04-20T07:06:31.106Z,13.71
2019-04-20T07:07:14.692Z,13.79
2019-04-20T07:08:28.973Z,13.91
2019-04-20T07:09:16.592Z,14.06
2019-04-20T07:11:16.598Z,14.36
2019-04-20T07:12:06.409Z,14.62
2019-04-20T07:13:07.937Z,14.92
2019-04-20T07:13:57.870Z,15.32
2019-04-20T07:14:58.640Z,15.83
2019-04-20T07:16:13.512Z,16.24
2019-04-20T07:17:20.540Z,16.57
2019-04-20T07:18:09.516Z,16.98
2019-04-20T07:19:15.223Z,17.40
2019-04-20T10:20:45.676Z,22.94
2019-04-20T10:21:45.726Z,23.13
2019-04-20T10:22:46.710Z,23.00
2019-04-20T10:23:45.621Z,23.42
2019-04-20T10:24:48.592Z,23.50
2019-04-20T10:25:46.789Z,23.55
2019-04-20T10:26:45.559Z,23.48
2019-04-20T10:27:45.644Z,23.50
2019-04-20T10:28:45.653Z,23.43
2019-04-20T10:29:45.854Z,23.55
2019-04-20T10:30:46.320Z,23.54
2019-04-20T10:31:50.500Z,23.48
2019-04-20T10:32:50.369Z,23.63
2019-04-20T10:33:45.913Z,23.58
2019-04-20T10:34:46.423Z,23.75
2019-04-20T10:35:45.615Z,23.93
2019-04-20T10:36:45.858Z,23.97
2019-04-20T10:37:45.491Z,24.06
2019-04-20T10:38:46.526Z,24.08
2019-04-20T10:39:46.692Z,24.18
2019-04-20T10:40:56.213Z,24.16
2019-04-20T10:41:51.255Z,24.18
2019-04-20T10:42:46.243Z,24.16
2019-04-20T10:43:46.853Z,24.18
2019-04-20T10:44:45.459Z,24.18
2019-04-20T10:45:46.682Z,24.18
2019-04-20T10:46:45.493Z,24.37
2019-04-20T10:47:45.412Z,24.35
2019-04-20T10:48:49.237Z,24.39
2019-04-20T10:49:45.349Z,24.34
2019-04-20T10:50:45.320Z,24.46
2019-04-20T10:51:45.250Z,24.47
2019-04-20T10:52:45.797Z,24.62
2019-04-20T10:53:45.281Z,24.73
2019-04-20T10:54:45.278Z,24.76
2019-04-20T10:55:45.343Z,24.77
2019-04-20T10:56:45.696Z,24.68
2019-04-20T10:57:45.889Z,24.98
2019-04-20T10:58:45.468Z,24.87
2019-04-20T10:59:45.723Z,24.76
2019-04-20T11:00:46.042Z,24.80
2019-04-20T11:01:45.726Z,24.71
2019-04-20T11:02:47.439Z,24.96
2019-04-20T11:03:45.190Z,24.98
2019-04-20T11:04:46.221Z,24.99
2019-04-20T11:05:45.089Z,25.20
2019-04-20T11:06:45.102Z,25.24
2019-04-20T11:07:46.271Z,25.20
2019-04-20T11:08:45.063Z,25.14
2019-04-20T11:09:46.981Z,25.10
2019-04-20T11:10:55.983Z,25.02
2019-04-20T11:11:46.087Z,25.00
2019-04-20T11:12:46.171Z,25.25
2019-04-20T11:13:45.635Z,25.27
2019-04-20T11:14:45.696Z,25.21
2019-04-20T11:15:46.291Z,25.35
2019-04-20T11:16:44.963Z,25.46
2019-04-20T11:17:45.751Z,25.69
2019-04-20T11:18:45.201Z,26.23
2019-04-20T11:19:45.311Z,26.60
2019-04-20T11:20:45.637Z,27.14
2019-04-20T11:21:46.202Z,27.65
2019-04-20T11:22:46.275Z,27.44
2019-04-20T11:23:46.477Z,27.65
2019-04-20T11:24:46.062Z,28.02
2019-04-20T11:25:46.290Z,28.27
2019-04-20T11:26:46.505Z,28.24
2019-04-20T11:27:45.983Z,28.68
2019-04-20T11:28:46.136Z,28.56
2019-04-20T11:29:44.884Z,28.44
2019-04-20T11:30:46.059Z,29.05
2019-04-20T11:31:49.261Z,29.16
2019-04-20T11:32:44.781Z,28.90
2019-04-20T11:33:45.890Z,29.41
2019-04-20T11:34:45.403Z,29.41
2019-04-20T11:35:46.916Z,29.19
2019-04-20T11:36:45.454Z,28.86
2019-04-20T11:37:44.959Z,28.68
2019-04-20T11:38:44.897Z,28.85
2019-04-20T11:39:45.264Z,29.12
2019-04-20T11:40:44.926Z,28.73
2019-04-20T11:41:45.719Z,28.92
2019-04-20T11:42:45.653Z,29.53
2019-04-20T11:43:44.654Z,29.76
2019-04-20T11:44:44.863Z,29.33
2019-04-20T11:45:44.728Z,29.58
2019-04-20T11:46:44.936Z,29.46
2019-04-20T11:47:45.317Z,29.31
2019-04-20T11:48:45.454Z,29.05
2019-04-20T11:49:45.731Z,28.52
2019-04-20T11:50:45.430Z,29.24
2019-04-20T11:51:45.569Z,28.78
2019-04-20T11:52:48.147Z,29.09
2019-04-20T11:53:45.878Z,29.08
2019-04-20T11:54:44.558Z,28.85
2019-04-20T11:55:44.684Z,29.46
2019-04-20T11:56:47.145Z,29.11
2019-04-20T11:57:45.253Z,29.90
2019-04-20T11:58:44.875Z,30.54
2019-04-20T11:59:45.315Z,30.47
2019-04-20T12:00:54.010Z,30.80
2019-04-20T12:01:52.185Z,30.27
2019-04-20T12:02:46.503Z,30.22
2019-04-20T12:03:51.916Z,30.07
2019-04-20T12:04:52.222Z,30.65
2019-04-20T12:05:49.623Z,30.23
2019-04-20T12:06:44.436Z,29.64
2019-04-20T12:07:44.818Z,30.22
2019-04-20T12:08:45.457Z,30.49
2019-04-20T12:09:44.410Z,30.67
2019-04-20T12:10:50.288Z,31.21
2019-04-20T12:11:55.950Z,31.81
2019-04-20T12:12:48.757Z,31.81
2019-04-20T12:13:44.867Z,31.32
2019-04-20T12:14:44.370Z,31.44
2019-04-20T12:15:45.434Z,30.80
2019-04-20T12:16:45.754Z,31.09
2019-04-20T12:17:44.336Z,31.75
2019-04-20T12:18:44.442Z,32.25
2019-04-20T12:19:44.320Z,32.29
2019-04-20T12:20:44.991Z,32.23
2019-04-20T12:21:45.490Z,31.76
2019-04-20T12:22:44.317Z,31.95
2019-04-20T12:23:44.583Z,31.73
2019-04-20T12:24:44.585Z,31.57
2019-04-20T12:25:44.589Z,30.99
2019-04-20T12:26:44.794Z,31.48
2019-04-20T12:27:49.664Z,31.48
2019-04-20T12:28:45.424Z,31.44
2019-04-20T12:29:45.647Z,32.01
2019-04-20T12:30:44.229Z,30.64
2019-04-20T12:31:52.197Z,30.70
2019-04-20T12:32:51.523Z,30.51
2019-04-20T12:33:44.353Z,30.15
2019-04-20T12:34:45.340Z,30.77
2019-04-20T12:35:44.481Z,30.19
2019-04-20T12:36:44.856Z,30.17
2019-04-20T12:37:45.107Z,30.00
2019-04-20T12:38:46.157Z,30.67
2019-04-20T12:39:44.915Z,31.46
2019-04-20T12:40:44.144Z,31.88
2019-04-20T12:41:50.445Z,31.78
2019-04-20T12:42:44.283Z,32.13
2019-04-20T12:43:44.120Z,31.65
2019-04-20T12:44:44.126Z,31.38
2019-04-20T12:45:44.223Z,31.47
2019-04-20T12:46:44.096Z,30.22
2019-04-20T12:47:46.991Z,30.34
2019-04-20T12:48:44.091Z,31.07
2019-04-20T12:49:45.403Z,31.31
2019-04-20T12:50:44.063Z,32.19
2019-04-20T12:51:52.202Z,32.60
2019-04-20T12:52:44.267Z,33.04
2019-04-20T12:53:44.543Z,32.74
2019-04-20T12:54:45.961Z,33.29
2019-04-20T12:55:44.331Z,33.29
2019-04-20T12:56:44.688Z,33.32
2019-04-20T12:57:44.784Z,33.47
2019-04-20T12:58:45.114Z,33.14
2019-04-20T12:59:46.928Z,33.53
2019-04-20T13:00:43.991Z,33.41
2019-04-20T13:01:43.986Z,33.38
2019-04-20T13:02:45.259Z,33.51
2019-04-20T13:03:43.973Z,33.34
2019-04-20T13:04:43.978Z,33.34
2019-04-20T13:05:43.964Z,32.78
2019-04-20T13:06:44.740Z,31.95
2019-04-20T13:07:47.839Z,31.61
2019-04-20T13:08:51.170Z,32.25
2019-04-20T13:09:44.314Z,32.94
2019-04-20T13:10:44.463Z,33.01
2019-04-20T13:11:51.987Z,32.79
2019-04-20T13:12:44.633Z,32.93
2019-04-20T13:13:44.263Z,33.44
2019-04-20T13:14:44.393Z,33.86
2019-04-20T13:15:44.548Z,33.07
2019-04-20T13:16:44.095Z,32.75
2019-04-20T13:17:44.349Z,32.70
2019-04-20T13:18:43.868Z,32.75
2019-04-20T13:19:45.082Z,32.87
2019-04-20T13:20:43.975Z,32.79
2019-04-20T13:21:45.114Z,33.06
2019-04-20T13:22:44.324Z,32.59
2019-04-20T13:23:44.940Z,31.70
2019-04-20T13:24:45.103Z,31.76
2019-04-20T13:25:43.866Z,32.19
2019-04-20T13:26:44.894Z,31.46
2019-04-20T13:27:45.020Z,31.46
2019-04-20T13:28:43.810Z,31.99
2019-04-20T13:29:47.093Z,32.03
2019-04-20T13:30:43.933Z,32.11
2019-04-20T13:31:44.087Z,32.33
2019-04-20T13:32:43.785Z,32.22
2019-04-20T13:33:43.783Z,32.96
2019-04-20T13:34:44.526Z,33.09
2019-04-20T13:35:43.953Z,32.43
2019-04-20T13:36:44.169Z,32.25
2019-04-20T13:37:45.134Z,32.26
2019-04-20T13:38:44.117Z,32.43
2019-04-20T13:39:44.780Z,32.70
2019-04-20T13:40:44.007Z,32.52
2019-04-20T13:41:57.040Z,33.19
2019-04-20T13:42:43.766Z,33.81
2019-04-20T13:43:43.940Z,34.02
2019-04-20T13:44:45.153Z,34.64
2019-04-20T13:45:44.736Z,33.56
2019-04-20T13:46:44.980Z,32.60
2019-04-20T13:47:43.704Z,32.33
2019-04-20T13:48:44.807Z,31.47
2019-04-20T13:49:45.076Z,31.61
2019-04-20T13:50:44.274Z,31.56
2019-04-20T13:51:44.607Z,32.32
2019-04-20T13:52:44.702Z,31.72
2019-04-20T13:53:43.678Z,32.30
2019-04-20T13:54:44.115Z,32.94
2019-04-20T13:55:43.677Z,33.15
2019-04-20T13:56:43.846Z,33.29
2019-04-20T13:57:44.018Z,34.32
2019-04-20T13:58:43.710Z,34.13
2019-04-20T13:59:44.070Z,33.81
2019-04-20T14:00:44.988Z,33.82
2019-04-20T14:01:44.550Z,32.45
2019-04-20T14:02:44.772Z,32.74
2019-04-20T14:03:44.913Z,32.60
2019-04-20T14:04:44.512Z,33.47
2019-04-20T14:05:44.702Z,32.78
2019-04-20T14:06:43.640Z,32.92
2019-04-20T14:07:43.618Z,32.57
2019-04-20T14:08:43.624Z,32.82
2019-04-20T14:09:43.679Z,31.88
2019-04-20T14:10:43.608Z,32.10
2019-04-20T14:11:43.620Z,32.25
2019-04-20T14:12:53.631Z,33.21
2019-04-20T14:13:53.003Z,33.51
2019-04-20T14:14:43.612Z,33.56
2019-04-20T14:15:44.865Z,34.53
2019-04-20T14:16:43.649Z,34.25
2019-04-20T14:17:43.585Z,34.12
2019-04-20T14:18:44.978Z,34.37
2019-04-20T14:19:43.577Z,34.39
2019-04-20T14:20:44.642Z,33.69
2019-04-20T14:21:43.981Z,33.88
2019-04-20T14:22:43.577Z,33.06
2019-04-20T14:23:43.565Z,32.52
2019-04-20T14:24:44.508Z,32.41
2019-04-20T14:25:45.021Z,32.35
2019-04-20T14:26:46.826Z,32.06
2019-04-20T14:27:44.590Z,32.28
2019-04-20T14:28:45.010Z,31.91
2019-04-20T14:29:43.550Z,31.70
2019-04-20T14:30:43.756Z,31.19
2019-04-20T14:31:43.804Z,31.23
2019-04-20T14:32:44.936Z,31.65
2019-04-20T14:33:44.631Z,32.30
2019-04-20T14:34:44.752Z,32.78
2019-04-20T14:35:43.532Z,33.34
2019-04-20T14:36:44.577Z,33.98
2019-04-20T14:37:43.833Z,33.78
2019-04-20T14:38:45.354Z,33.21
2019-04-20T14:39:43.519Z,33.35
2019-04-20T14:40:44.187Z,32.88
2019-04-20T14:41:44.448Z,33.06
2019-04-20T14:42:48.562Z,33.44
2019-04-20T14:43:44.689Z,33.32
2019-04-20T14:44:43.728Z,33.32
2019-04-20T14:45:44.757Z,32.92
2019-04-20T14:46:43.503Z,32.28
2019-04-20T14:47:43.811Z,32.85
2019-04-20T14:48:44.867Z,33.29
2019-04-20T14:49:43.509Z,33.42
2019-04-20T14:50:43.550Z,34.00
2019-04-20T14:51:43.737Z,34.50
2019-04-20T14:52:45.339Z,34.69
2019-04-20T14:53:43.488Z,34.56
2019-04-20T14:54:43.625Z,34.77
2019-04-20T14:55:43.768Z,34.35
2019-04-20T14:56:43.551Z,33.35
2019-04-20T14:57:43.586Z,32.52
2019-04-20T14:58:45.077Z,32.44
2019-04-20T14:59:43.526Z,32.52
2019-04-20T15:00:43.748Z,32.60
2019-04-20T15:01:44.831Z,33.41
2019-04-20T15:02:43.780Z,33.47
2019-04-20T15:03:43.928Z,33.82
2019-04-20T15:04:43.470Z,34.53
2019-04-20T15:05:43.468Z,34.50
2019-04-20T15:06:44.460Z,33.50
2019-04-20T15:07:44.699Z,33.31
2019-04-20T15:08:44.900Z,32.96
2019-04-20T15:09:44.656Z,33.93
2019-04-20T15:10:44.761Z,34.37
2019-04-20T15:11:45.148Z,33.34
2019-04-20T15:12:50.878Z,33.86
2019-04-20T15:13:44.629Z,33.66
2019-04-20T15:14:44.769Z,33.97
2019-04-20T15:15:44.284Z,34.35
2019-04-20T15:16:44.581Z,34.09
2019-04-20T15:17:43.758Z,34.47
2019-04-20T15:18:43.453Z,33.81
2019-04-20T15:19:43.463Z,34.35
2019-04-20T15:20:43.741Z,34.00
2019-04-20T15:21:43.448Z,33.37
2019-04-20T15:22:43.467Z,33.81
2019-04-20T15:23:43.727Z,33.82
2019-04-20T15:24:43.449Z,33.04
2019-04-20T15:25:44.486Z,33.50
2019-04-20T15:26:44.502Z,34.22
2019-04-20T15:27:46.083Z,34.22
2019-04-20T15:28:44.125Z,33.82
2019-04-20T15:29:44.196Z,33.93
2019-04-20T15:30:44.490Z,34.66
2019-04-20T15:31:43.997Z,34.02
2019-04-20T15:32:43.471Z,33.47
2019-04-20T15:33:43.447Z,33.66
2019-04-20T15:34:44.624Z,33.98
2019-04-20T15:35:44.200Z,33.42
2019-04-20T15:36:44.307Z,33.31
2019-04-20T15:37:44.930Z,33.11
2019-04-20T15:38:43.443Z,32.28
2019-04-20T15:39:43.445Z,31.88
2019-04-20T15:40:44.657Z,31.02
2019-04-20T15:41:43.449Z,30.20
2019-04-20T15:42:54.990Z,29.51
2019-04-20T15:43:43.619Z,29.60
2019-04-20T15:44:43.441Z,30.15
2019-04-20T15:45:43.536Z,30.86
2019-04-20T15:46:43.572Z,31.39
2019-04-20T15:47:43.784Z,32.23
2019-04-20T15:48:43.979Z,32.35
2019-04-20T15:49:44.164Z,32.40
2019-04-20T15:50:43.773Z,32.44
2019-04-20T15:51:43.804Z,32.57
2019-04-20T15:52:49.421Z,32.66
2019-04-20T15:53:43.905Z,31.84
2019-04-20T15:54:43.496Z,32.14
2019-04-20T15:55:45.197Z,32.45
2019-04-20T15:56:52.689Z,32.57
2019-04-20T15:57:44.746Z,32.32
2019-04-20T15:58:44.265Z,32.84
2019-04-20T15:59:44.462Z,32.72
2019-04-20T16:00:44.715Z,32.07
2019-04-20T16:01:43.420Z,31.76
2019-04-20T16:02:43.452Z,32.28
2019-04-20T16:03:43.541Z,32.19
2019-04-20T16:04:45.028Z,31.88
2019-04-20T16:05:43.421Z,32.19
2019-04-20T16:06:43.430Z,32.55
2019-04-20T16:07:50.134Z,32.93
2019-04-20T16:08:44.053Z,33.22
2019-04-20T16:09:44.335Z,33.66
2019-04-20T16:10:43.414Z,33.66
2019-04-20T16:11:44.759Z,33.59
2019-04-20T16:12:44.813Z,33.12
2019-04-20T16:13:46.370Z,32.23
2019-04-20T16:14:43.890Z,31.56
2019-04-20T16:15:43.451Z,31.29
2019-04-20T16:16:44.481Z,31.35
2019-04-20T16:17:47.128Z,31.51
2019-04-20T16:18:43.438Z,31.56
2019-04-20T16:19:50.974Z,31.16
2019-04-20T16:20:51.999Z,31.19
2019-04-20T16:21:43.824Z,31.93
2019-04-20T16:22:44.676Z,32.62
2019-04-20T16:23:43.428Z,32.43
2019-04-20T16:24:44.845Z,31.41
2019-04-20T16:25:43.709Z,31.35
2019-04-20T16:26:44.144Z,31.47
2019-04-20T16:27:51.847Z,31.54
2019-04-20T16:28:43.728Z,31.95
2019-04-20T16:29:43.916Z,32.33
2019-04-20T16:30:43.520Z,32.57
2019-04-20T16:31:46.412Z,32.84
2019-04-20T16:32:44.800Z,32.60
2019-04-20T16:33:44.277Z,32.22
2019-04-20T16:34:44.511Z,31.69
2019-04-20T16:35:44.591Z,30.94
2019-04-20T16:36:44.521Z,31.35
2019-04-20T16:37:44.382Z,30.95
2019-04-20T16:38:43.598Z,31.50
2019-04-20T16:39:43.410Z,32.19
2019-04-20T16:40:44.321Z,32.32
2019-04-20T16:41:44.451Z,32.67
2019-04-20T16:42:45.123Z,33.29
2019-04-20T16:43:45.995Z,33.18
2019-04-20T16:44:43.403Z,33.01
2019-04-20T16:45:43.391Z,31.95
2019-04-20T16:46:43.389Z,31.92
2019-04-20T16:47:44.174Z,31.91
2019-04-20T16:48:44.307Z,32.57
2019-04-20T16:49:43.399Z,32.97
2019-04-20T16:50:44.877Z,33.21
2019-04-20T16:51:43.384Z,33.45
2019-04-20T16:52:43.386Z,33.35
2019-04-20T16:53:43.634Z,32.59
2019-04-20T16:54:43.864Z,32.43
2019-04-20T16:55:43.382Z,32.21
2019-04-20T16:56:44.433Z,32.45
2019-04-20T16:57:46.162Z,32.59
2019-04-20T16:58:44.105Z,32.22
2019-04-20T16:59:47.261Z,32.60
2019-04-20T17:00:43.379Z,32.23
2019-04-20T17:01:44.487Z,31.44
2019-04-20T17:02:44.611Z,31.80
2019-04-20T17:03:52.171Z,31.44
2019-04-20T17:04:43.386Z,30.53
2019-04-20T17:05:43.404Z,30.82
2019-04-20T17:06:44.156Z,31.31
2019-04-20T17:07:44.756Z,31.72
2019-04-20T17:08:44.521Z,31.70
2019-04-20T17:09:43.924Z,31.76
2019-04-20T17:10:44.469Z,31.57
2019-04-20T17:11:43.771Z,31.84
2019-04-20T17:12:43.828Z,31.61
2019-04-20T17:13:49.408Z,30.77
2019-04-20T17:14:43.491Z,29.57
2019-04-20T17:15:43.464Z,29.16
2019-04-20T17:16:43.784Z,28.77
2019-04-20T17:17:43.494Z,28.24
2019-04-20T17:18:43.450Z,28.22
2019-04-20T17:19:43.929Z,27.75
2019-04-20T17:20:44.316Z,27.65
2019-04-20T17:21:44.502Z,27.66
2019-04-20T17:22:44.415Z,27.60
2019-04-20T17:23:45.030Z,27.43
2019-04-20T17:24:43.322Z,27.31
2019-04-20T17:25:43.893Z,27.31
2019-04-20T17:26:43.470Z,27.46
2019-04-20T17:27:44.629Z,27.67
2019-04-20T17:28:44.759Z,27.49
2019-04-20T17:29:45.614Z,27.84
2019-04-20T17:30:45.132Z,27.97
2019-04-20T17:31:43.292Z,28.18
2019-04-20T17:32:43.493Z,28.18
2019-04-20T17:33:55.121Z,28.12
2019-04-20T17:34:57.271Z,27.93
2019-04-20T17:35:53.044Z,27.85
2019-04-20T17:36:44.430Z,27.49
2019-04-20T17:37:46.326Z,27.47
2019-04-20T17:38:48.637Z,27.32
2019-04-20T17:40:06.451Z,27.12
2019-04-20T17:41:01.806Z,27.02
2019-04-20T17:42:00.435Z,26.69
2019-04-20T17:42:54.114Z,26.40
2019-04-20T17:44:04.121Z,26.23
2019-04-20T17:44:55.507Z,26.17
2019-04-20T17:45:55.814Z,25.99
2019-04-20T17:46:56.843Z,25.83
2019-04-20T17:48:03.179Z,25.79
2019-04-20T17:49:00.660Z,25.75
2019-04-20T17:50:06.871Z,25.50
2019-04-20T17:51:04.821Z,25.33
2019-04-20T17:52:06.263Z,25.06
2019-04-20T17:53:03.060Z,24.71
2019-04-20T17:53:50.960Z,24.68
2019-04-20T17:54:43.302Z,24.60
2019-04-20T17:55:45.394Z,24.53
2019-04-20T17:56:44.385Z,24.47
2019-04-20T17:57:43.606Z,24.25
2019-04-20T17:58:43.887Z,24.06
2019-04-20T17:59:44.832Z,23.76
2019-04-20T18:00:47.922Z,23.68
2019-04-20T18:02:00.437Z,23.60
2019-04-20T18:03:06.036Z,23.54
2019-04-20T18:04:13.686Z,23.43
2019-04-20T18:05:06.588Z,23.38
2019-04-20T18:05:59.746Z,23.36
2019-04-20T18:06:53.735Z,23.12
2019-04-20T18:08:07.665Z,23.04
2019-04-20T18:09:00.476Z,23.02
2019-04-20T18:10:03.084Z,22.82
2019-04-20T18:10:57.257Z,22.95
2019-04-20T18:11:49.068Z,23.01
2019-04-20T18:12:48.476Z,23.04
2019-04-20T18:13:46.130Z,23.10
2019-04-20T18:14:58.387Z,22.90
2019-04-20T18:15:59.265Z,22.98
2019-04-20T18:17:03.276Z,22.94
2019-04-20T18:18:00.253Z,22.70
2019-04-20T18:18:52.954Z,22.61
2019-04-20T18:19:42.991Z,22.57
2019-04-20T18:20:43.007Z,22.45
2019-04-20T18:21:43.572Z,22.24
2019-04-20T18:22:47.031Z,22.31
2019-04-20T18:23:46.273Z,22.20
2019-04-20T18:25:10.399Z,21.99
2019-04-20T18:26:06.445Z,21.91
2019-04-20T18:26:59.681Z,21.83
2019-04-20T18:27:59.976Z,21.72
2019-04-20T18:29:03.513Z,21.68
2019-04-20T18:30:02.183Z,21.64